Airfield :
LOGIN :

Register | Disclaimer

   EN    FR    IT 

 










Legend :    VFR   Marginal VFR   IFR   Intensive IFR   Very Intensive IFR
Visi :
Ceiling :
>= 8 km
>= 3000ft
5 to 8 km
1000 to 3000 ft
1500m to 5 km
500 to 1000 ft
800 to 1500m
200 to 500 ft
< 800m
< 200 ft
Symbols :   Thunderstorms  Fog  Heavy snow  Heavy precipitations  Wind > 20 kt
SIGMETs :     Misc.  Thunderstorms  Icing  Turbulence  Mountain Waves  Volcanic Ashes






- Airport Elevation : 84 ft


LFBC - Cazaux

CURRENT METAR :
  • 160600Z AUTO 00000KT CAVOK M01/M02 Q1030

EXPIRED METARs :
  • 160530Z AUTO 00000KT CAVOK M01/M02 Q1030
  • 160500Z AUTO 00000KT CAVOK M01/M02 Q1030
  • 160430Z AUTO 00000KT 9999 FEW026 M01/M02 Q1030
  • 160400Z AUTO 00000KT 9999 BKN026 M01/M02 Q1030
  • 160330Z AUTO 00000KT 9999 OVC028 M01/M01 Q1030

TAF TAF LFBC
Valid from the 15 at 15:00 until the 16 at 15:00 UTC


151400Z 1515/1615 32010KT 9999 SCT030 BKN050
BECMG 1522/1524 05005KT
PROB30
TEMPO 1600/1606 0800 BCFG
PROB30
TEMPO 1610/1613 BKN010
BECMG 1614/1615 24010KT



MET'MAP, your aeronautical weather chart ! - Copyright ORBIFLY December 2007 - Disclaimer

ORBIFLY MET'MAP TEAM :

Programming & Development : Alexandra Zaïnal
Concept & original design : Baudouin d'Aumeries
Assistance for programming : Marc-Olivier Méhu
Technical & hardware support : Manuel Goepfert

Contact : metmap@orbifly.com




SOURCES & CREDITS :

   NOAA